Time;durP1;ratioP1;P1;durP2;ratioP2;P2;SDS_P1;SDS_P2;PMS_P1;PMS_P2;Temp;Humidity;BMP_temperature;BMP_pressure;BME280_temperature;BME280_humidity;BME280_pressure;Samples;Min_cycle;Max_cycle;Signal;HPM_P1;HPM_P2
2022/10/21 00:00:37;;;;;;;21.23;12.60;;;;;;;;;;5071740;28;20397;-43
2022/10/21 00:03:03;;;;;;;24.87;12.80;;;;;;;;;;5070936;28;20465;-44
2022/10/21 00:05:29;;;;;;;20.40;14.20;;;;;;;;;;5070999;28;20464;-43
2022/10/21 00:07:55;;;;;;;16.07;11.70;;;;;;;;;;5071428;28;20448;-43
2022/10/21 00:10:21;;;;;;;20.93;12.73;;;;;;;;;;5071684;28;20420;-43
2022/10/21 00:12:47;;;;;;;21.63;13.13;;;;;;;;;;5071092;28;20408;-43
2022/10/21 00:15:13;;;;;;;24.50;13.90;;;;;;;;;;5071231;28;20414;-43
2022/10/21 00:17:40;;;;;;;25.27;13.80;;;;;;;;;;5071490;28;20387;-43
2022/10/21 00:20:07;;;;;;;20.13;13.40;;;;;;;;;;5071444;28;20896;-43
2022/10/21 00:22:33;;;;;;;23.90;13.73;;;;;;;;;;5071151;28;20499;-44
2022/10/21 00:24:59;;;;;;;21.80;14.87;;;;;;;;;;5070743;28;20535;-44
2022/10/21 00:27:25;;;;;;;19.03;12.93;;;;;;;;;;5069825;28;20416;-44
2022/10/21 00:29:51;;;;;;;19.63;13.50;;;;;;;;;;5071388;28;20412;-44
2022/10/21 00:32:17;;;;;;;22.17;13.70;;;;;;;;;;5070925;28;20748;-44
2022/10/21 00:34:44;;;;;;;20.23;12.50;;;;;;;;;;5070956;28;20411;-43
2022/10/21 00:37:10;;;;;;;20.40;14.57;;;;;;;;;;5069937;28;20672;-44
2022/10/21 00:39:36;;;;;;;22.47;13.93;;;;;;;;;;5051243;28;20424;-44
2022/10/21 00:42:04;;;;;;;24.33;13.70;;;;;;;;;;5051110;28;20389;-44
2022/10/21 00:44:30;;;;;;;19.37;12.80;;;;;;;;;;5050662;28;20428;-43
2022/10/21 00:47:05;;;;;;;20.27;13.20;;;;;;;;;;5051148;28;20406;-44
2022/10/21 00:49:37;;;;;;;20.80;12.73;;;;;;;;;;5051625;28;20395;-43
2022/10/21 00:52:05;;;;;;;23.13;13.50;;;;;;;;;;5051157;28;20436;-44
2022/10/21 00:54:31;;;;;;;15.63;12.20;;;;;;;;;;5050483;28;20419;-44
2022/10/21 00:56:57;;;;;;;23.50;14.83;;;;;;;;;;5051126;28;20419;-44
2022/10/21 00:59:24;;;;;;;22.87;13.37;;;;;;;;;;5051207;28;20408;-44
2022/10/21 01:01:50;;;;;;;18.27;13.20;;;;;;;;;;5050248;28;20444;-44
2022/10/21 01:04:16;;;;;;;23.23;12.90;;;;;;;;;;5050274;28;20961;-44
2022/10/21 01:06:43;;;;;;;17.83;12.67;;;;;;;;;;5050271;28;20446;-44
2022/10/21 01:09:09;;;;;;;18.90;11.63;;;;;;;;;;5050795;28;20472;-44
2022/10/21 01:11:39;;;;;;;20.93;12.93;;;;;;;;;;5050843;28;20788;-44
2022/10/21 01:14:23;;;;;;;15.50;11.63;;;;;;;;;;5052311;28;20417;-44
2022/10/21 01:16:56;;;;;;;22.70;11.53;;;;;;;;;;5054346;28;20450;-44
2022/10/21 01:19:21;;;;;;;17.97;12.17;;;;;;;;;;5054456;28;20487;-44
2022/10/21 01:21:52;;;;;;;20.10;13.13;;;;;;;;;;5054665;28;20405;-43
2022/10/21 01:24:18;;;;;;;17.83;12.40;;;;;;;;;;5034463;28;20479;-43
2022/10/21 01:26:46;;;;;;;22.27;13.10;;;;;;;;;;5033905;28;20433;-43
2022/10/21 01:29:36;;;;;;;21.10;12.00;;;;;;;;;;5054164;28;20983;-44
2022/10/21 01:32:20;;;;;;;18.17;11.77;;;;;;;;;;5043791;28;20396;-44
2022/10/21 01:34:49;;;;;;;19.60;12.03;;;;;;;;;;5053624;28;20904;-43
2022/10/21 01:37:23;;;;;;;19.87;12.63;;;;;;;;;;5053822;28;20408;-44
2022/10/21 01:40:00;;;;;;;15.67;11.27;;;;;;;;;;5054067;28;20808;-44
2022/10/21 01:42:31;;;;;;;18.70;12.53;;;;;;;;;;5053863;28;20906;-44
2022/10/21 01:45:02;;;;;;;20.23;11.40;;;;;;;;;;5053479;28;20456;-44
2022/10/21 01:47:33;;;;;;;24.23;14.03;;;;;;;;;;5053919;28;20400;-43
2022/10/21 01:50:01;;;;;;;17.63;12.70;;;;;;;;;;5054267;28;20513;-44
2022/10/21 01:52:28;;;;;;;21.03;12.60;;;;;;;;;;5053772;28;20373;-43
2022/10/21 01:54:56;;;;;;;19.60;11.40;;;;;;;;;;5053138;28;20388;-43
2022/10/21 01:57:26;;;;;;;19.27;11.60;;;;;;;;;;5053673;28;20409;-44
2022/10/21 01:59:53;;;;;;;12.63;11.00;;;;;;;;;;5053744;28;20451;-44
2022/10/21 02:02:19;;;;;;;19.77;12.10;;;;;;;;;;5053574;28;20574;-44
2022/10/21 02:04:46;;;;;;;15.83;11.40;;;;;;;;;;5053028;28;20461;-44
2022/10/21 02:07:13;;;;;;;14.90;10.60;;;;;;;;;;5051645;28;20444;-44
2022/10/21 02:09:39;;;;;;;14.73;10.53;;;;;;;;;;5053979;28;20823;-44
2022/10/21 02:12:05;;;;;;;13.73;10.47;;;;;;;;;;5053511;28;20431;-45
2022/10/21 02:14:36;;;;;;;13.07;9.73;;;;;;;;;;5052920;28;20880;-44
2022/10/21 02:17:02;;;;;;;15.60;9.20;;;;;;;;;;5053203;28;20398;-43
2022/10/21 02:19:28;;;;;;;13.20;9.87;;;;;;;;;;5053546;28;20789;-44
2022/10/21 02:21:56;;;;;;;17.50;9.57;;;;;;;;;;5051975;28;20554;-44
2022/10/21 02:24:30;;;;;;;15.80;9.07;;;;;;;;;;5053345;28;20855;-44
2022/10/21 02:26:56;;;;;;;11.00;7.63;;;;;;;;;;5053370;28;20401;-43
2022/10/21 02:29:23;;;;;;;13.73;7.97;;;;;;;;;;5053045;28;20429;-44
2022/10/21 02:31:55;;;;;;;13.30;8.40;;;;;;;;;;5052942;28;20488;-44
2022/10/21 02:34:29;;;;;;;8.80;7.00;;;;;;;;;;5053028;28;20435;-44
2022/10/21 02:37:09;;;;;;;10.83;6.43;;;;;;;;;;5053129;28;20403;-44
2022/10/21 02:39:39;;;;;;;7.87;6.83;;;;;;;;;;5053028;28;20414;-44
2022/10/21 02:42:07;;;;;;;9.07;6.23;;;;;;;;;;5053224;28;20414;-43
2022/10/21 02:44:33;;;;;;;10.33;6.83;;;;;;;;;;5052395;28;20492;-44
2022/10/21 02:46:59;;;;;;;7.60;5.77;;;;;;;;;;5053042;28;20401;-43
2022/10/21 02:49:25;;;;;;;7.37;5.70;;;;;;;;;;5052531;28;20509;-44
2022/10/21 02:51:51;;;;;;;8.10;5.90;;;;;;;;;;5052665;28;20406;-44
2022/10/21 02:54:17;;;;;;;10.10;6.33;;;;;;;;;;5052629;28;20428;-43
2022/10/21 02:56:42;;;;;;;7.77;5.73;;;;;;;;;;5052175;28;20441;-44
2022/10/21 02:59:09;;;;;;;7.03;5.80;;;;;;;;;;5052785;28;20424;-43
2022/10/21 03:01:35;;;;;;;9.23;6.10;;;;;;;;;;5052901;28;20981;-43
2022/10/21 03:04:01;;;;;;;7.23;5.20;;;;;;;;;;5052310;28;20465;-43
2022/10/21 03:06:27;;;;;;;9.17;6.17;;;;;;;;;;5052092;28;20455;-44
2022/10/21 03:08:53;;;;;;;18.43;5.30;;;;;;;;;;5052257;28;20455;-43
2022/10/21 03:11:19;;;;;;;6.00;5.30;;;;;;;;;;5052828;28;20435;-44
2022/10/21 03:13:45;;;;;;;10.67;4.93;;;;;;;;;;5052216;28;20414;-43
2022/10/21 03:16:11;;;;;;;6.10;5.50;;;;;;;;;;5051891;28;20414;-44
2022/10/21 03:18:36;;;;;;;8.10;5.23;;;;;;;;;;5052017;28;20520;-44
2022/10/21 03:21:02;;;;;;;7.53;4.63;;;;;;;;;;5052384;28;20393;-43
2022/10/21 03:23:28;;;;;;;9.23;4.60;;;;;;;;;;5051998;28;20411;-44
2022/10/21 03:25:54;;;;;;;10.13;4.90;;;;;;;;;;5051420;28;20476;-44
2022/10/21 03:28:20;;;;;;;9.73;5.60;;;;;;;;;;5051900;28;20412;-44
2022/10/21 03:30:46;;;;;;;5.30;4.70;;;;;;;;;;5052293;28;20382;-43
2022/10/21 03:33:12;;;;;;;7.47;5.20;;;;;;;;;;5052022;28;20497;-44
2022/10/21 03:35:38;;;;;;;4.70;4.30;;;;;;;;;;5051573;28;20409;-43
2022/10/21 03:38:04;;;;;;;6.27;5.60;;;;;;;;;;5051594;28;20505;-44
2022/10/21 03:40:30;;;;;;;4.80;4.23;;;;;;;;;;5051695;28;20405;-43
2022/10/21 03:42:56;;;;;;;5.40;4.73;;;;;;;;;;5051807;28;20451;-44
2022/10/21 03:45:22;;;;;;;5.17;4.33;;;;;;;;;;5051172;28;20517;-44
2022/10/21 03:47:48;;;;;;;6.23;4.30;;;;;;;;;;5051858;28;20852;-44
2022/10/21 03:50:14;;;;;;;5.30;4.80;;;;;;;;;;5051816;28;20932;-44
2022/10/21 03:52:40;;;;;;;10.10;4.37;;;;;;;;;;5051652;28;20397;-44
2022/10/21 03:55:07;;;;;;;8.73;4.00;;;;;;;;;;5051134;28;20863;-43
2022/10/21 03:57:33;;;;;;;10.33;4.40;;;;;;;;;;5051809;28;20913;-44
2022/10/21 03:59:58;;;;;;;8.10;4.33;;;;;;;;;;5051427;28;20429;-44
2022/10/21 04:02:24;;;;;;;6.30;4.30;;;;;;;;;;5051468;28;20400;-44
2022/10/21 04:04:50;;;;;;;10.50;4.20;;;;;;;;;;5050925;28;21016;-43
2022/10/21 04:07:16;;;;;;;7.10;4.30;;;;;;;;;;5051694;28;20430;-44
2022/10/21 04:09:42;;;;;;;9.30;4.80;;;;;;;;;;5051193;28;20424;-44
2022/10/21 04:12:08;;;;;;;5.23;4.00;;;;;;;;;;5051424;28;20407;-43
2022/10/21 04:14:34;;;;;;;6.33;4.77;;;;;;;;;;5051327;28;20384;-44
2022/10/21 04:17:00;;;;;;;9.27;4.20;;;;;;;;;;5051313;28;20409;-43
2022/10/21 04:19:26;;;;;;;3.93;3.63;;;;;;;;;;5051191;28;20407;-44
2022/10/21 04:21:52;;;;;;;6.83;4.17;;;;;;;;;;5050015;28;20401;-44
2022/10/21 04:24:18;;;;;;;4.73;4.33;;;;;;;;;;5051181;28;20479;-44
2022/10/21 04:26:44;;;;;;;4.77;4.20;;;;;;;;;;5051002;28;20473;-44
2022/10/21 04:29:10;;;;;;;5.33;3.60;;;;;;;;;;5051156;28;20475;-43
2022/10/21 04:31:36;;;;;;;7.80;4.80;;;;;;;;;;5051442;28;20839;-44
2022/10/21 04:34:02;;;;;;;3.70;3.40;;;;;;;;;;5051272;28;20445;-43
2022/10/21 04:36:28;;;;;;;3.57;3.27;;;;;;;;;;5050937;28;20832;-43
2022/10/21 04:38:54;;;;;;;6.40;4.20;;;;;;;;;;5051133;28;20483;-43
2022/10/21 04:41:20;;;;;;;7.53;3.40;;;;;;;;;;5051333;28;20424;-44
2022/10/21 04:43:46;;;;;;;6.63;4.17;;;;;;;;;;5051010;28;20507;-43
2022/10/21 04:46:13;;;;;;;4.13;3.57;;;;;;;;;;5050786;28;20397;-44
2022/10/21 04:48:39;;;;;;;3.30;3.00;;;;;;;;;;5051821;28;20862;-44
2022/10/21 04:51:05;;;;;;;5.43;4.13;;;;;;;;;;5054934;28;20364;-44
2022/10/21 04:53:31;;;;;;;5.70;4.00;;;;;;;;;;5054829;28;20383;-44
2022/10/21 04:55:57;;;;;;;4.10;3.80;;;;;;;;;;5054622;28;20405;-44
2022/10/21 04:58:23;;;;;;;5.40;3.03;;;;;;;;;;5055034;28;20387;-44
2022/10/21 05:00:49;;;;;;;3.63;3.30;;;;;;;;;;5054914;28;20770;-44
2022/10/21 05:03:15;;;;;;;4.43;3.20;;;;;;;;;;5054616;28;20432;-44
2022/10/21 05:05:41;;;;;;;5.17;3.10;;;;;;;;;;5054065;28;20511;-44
2022/10/21 05:08:07;;;;;;;3.63;3.33;;;;;;;;;;5055449;28;20400;-43
2022/10/21 05:10:33;;;;;;;4.73;3.50;;;;;;;;;;5054557;28;20415;-44
2022/10/21 05:12:59;;;;;;;3.87;3.53;;;;;;;;;;5054797;28;20865;-44
2022/10/21 05:15:25;;;;;;;5.63;3.97;;;;;;;;;;5054109;28;20416;-44
2022/10/21 05:17:52;;;;;;;4.13;3.67;;;;;;;;;;5054645;28;20860;-44
2022/10/21 05:20:19;;;;;;;6.03;3.93;;;;;;;;;;5054193;28;20788;-44
2022/10/21 05:22:45;;;;;;;4.07;3.73;;;;;;;;;;5054409;28;20433;-44
2022/10/21 05:25:11;;;;;;;4.20;3.40;;;;;;;;;;5053896;28;20549;-44
2022/10/21 05:27:37;;;;;;;7.13;3.53;;;;;;;;;;5054571;28;20421;-44
2022/10/21 05:30:04;;;;;;;7.37;3.63;;;;;;;;;;5054244;28;21110;-44
2022/10/21 05:32:30;;;;;;;4.00;3.63;;;;;;;;;;5054253;28;20412;-44
2022/10/21 05:34:56;;;;;;;4.43;2.90;;;;;;;;;;5053705;28;20406;-43
2022/10/21 05:37:22;;;;;;;3.87;3.10;;;;;;;;;;5054551;28;20480;-44
2022/10/21 05:39:48;;;;;;;4.50;4.10;;;;;;;;;;5054091;28;20428;-44
2022/10/21 05:42:14;;;;;;;5.27;3.20;;;;;;;;;;5053068;28;20594;-44
2022/10/21 05:44:40;;;;;;;4.17;3.40;;;;;;;;;;5053293;28;20460;-44
2022/10/21 05:47:06;;;;;;;7.00;4.70;;;;;;;;;;5053511;28;20409;-43
2022/10/21 05:49:32;;;;;;;3.40;3.10;;;;;;;;;;5053258;28;20431;-44
2022/10/21 05:51:58;;;;;;;4.17;3.30;;;;;;;;;;5051932;28;20409;-44
2022/10/21 05:54:24;;;;;;;3.50;3.30;;;;;;;;;;5045141;28;20482;-44
2022/10/21 05:56:50;;;;;;;3.87;3.43;;;;;;;;;;5053397;28;20383;-45
2022/10/21 05:59:16;;;;;;;6.33;3.47;;;;;;;;;;5053107;28;20424;-44
2022/10/21 06:01:42;;;;;;;4.93;3.57;;;;;;;;;;5052481;28;20483;-43
2022/10/21 06:04:07;;;;;;;3.67;3.20;;;;;;;;;;5052849;28;20960;-44
2022/10/21 06:06:33;;;;;;;5.53;3.37;;;;;;;;;;5052916;28;20399;-44
2022/10/21 06:08:59;;;;;;;5.97;3.50;;;;;;;;;;5053040;28;20423;-43
2022/10/21 06:11:25;;;;;;;3.83;3.47;;;;;;;;;;5052090;28;20379;-44
2022/10/21 06:13:51;;;;;;;3.67;3.33;;;;;;;;;;5051701;28;20404;-44
2022/10/21 06:16:17;;;;;;;8.73;3.63;;;;;;;;;;5052762;28;20423;-44
2022/10/21 06:18:43;;;;;;;6.30;3.60;;;;;;;;;;5052208;28;21147;-44
2022/10/21 06:21:10;;;;;;;3.90;3.50;;;;;;;;;;5053181;28;20510;-43
2022/10/21 06:23:36;;;;;;;5.03;3.00;;;;;;;;;;5053272;28;20423;-44
2022/10/21 06:26:06;;;;;;;3.60;3.30;;;;;;;;;;5052853;28;20908;-44
2022/10/21 06:28:34;;;;;;;3.80;3.40;;;;;;;;;;5053263;28;20417;-43
2022/10/21 06:31:00;;;;;;;3.50;3.20;;;;;;;;;;5053273;28;20409;-43
2022/10/21 06:33:26;;;;;;;4.63;3.17;;;;;;;;;;5053030;28;20401;-44
2022/10/21 06:35:52;;;;;;;4.63;3.43;;;;;;;;;;5052680;28;20499;-43
2022/10/21 06:38:18;;;;;;;3.83;3.53;;;;;;;;;;5053103;28;20432;-44
2022/10/21 06:40:44;;;;;;;4.23;3.73;;;;;;;;;;5067895;28;20419;-43
2022/10/21 06:43:10;;;;;;;4.47;3.17;;;;;;;;;;5072664;28;20412;-44
2022/10/21 06:45:36;;;;;;;11.03;3.47;;;;;;;;;;5072045;28;20456;-44
2022/10/21 06:48:02;;;;;;;4.07;3.33;;;;;;;;;;5072929;28;20483;-44
2022/10/21 06:50:28;;;;;;;5.90;2.87;;;;;;;;;;5072887;28;20446;-43
2022/10/21 06:52:54;;;;;;;3.17;2.97;;;;;;;;;;5072491;28;20435;-43
2022/10/21 06:55:21;;;;;;;5.30;3.60;;;;;;;;;;5072016;28;20957;-43
2022/10/21 06:57:47;;;;;;;3.10;2.80;;;;;;;;;;5072464;28;20375;-44
2022/10/21 07:00:13;;;;;;;5.60;3.40;;;;;;;;;;5072473;28;20487;-43
2022/10/21 07:02:39;;;;;;;5.47;2.67;;;;;;;;;;5072158;28;20401;-43
2022/10/21 07:05:05;;;;;;;4.67;2.83;;;;;;;;;;5071745;28;20470;-44
2022/10/21 07:07:31;;;;;;;3.30;3.07;;;;;;;;;;5072617;28;20403;-44
2022/10/21 07:09:57;;;;;;;5.20;3.40;;;;;;;;;;5072162;28;20421;-43
2022/10/21 07:12:23;;;;;;;3.40;2.97;;;;;;;;;;5071438;28;20388;-44
2022/10/21 07:14:49;;;;;;;4.63;3.47;;;;;;;;;;5071593;28;20398;-43
2022/10/21 07:17:16;;;;;;;3.33;3.00;;;;;;;;;;5072419;28;20408;-44
2022/10/21 07:19:42;;;;;;;4.57;3.63;;;;;;;;;;5072183;28;20458;-44
2022/10/21 07:22:08;;;;;;;8.27;3.40;;;;;;;;;;5071989;28;20391;-44
2022/10/21 07:24:34;;;;;;;4.07;2.83;;;;;;;;;;5071843;28;20434;-44
2022/10/21 07:27:00;;;;;;;3.43;3.10;;;;;;;;;;5071912;28;20881;-44
2022/10/21 07:29:26;;;;;;;3.90;2.87;;;;;;;;;;5071819;28;20504;-44
2022/10/21 07:31:52;;;;;;;3.40;3.10;;;;;;;;;;5071911;28;20425;-43
2022/10/21 07:34:18;;;;;;;16.43;3.23;;;;;;;;;;5071564;28;20414;-44
2022/10/21 07:36:51;;;;;;;3.67;3.10;;;;;;;;;;5071789;28;20411;-44
2022/10/21 07:39:18;;;;;;;6.17;3.20;;;;;;;;;;5072013;28;20495;-44
2022/10/21 07:41:46;;;;;;;3.07;2.77;;;;;;;;;;5071804;28;20798;-43
2022/10/21 07:44:12;;;;;;;8.70;3.00;;;;;;;;;;5071675;28;20472;-44
2022/10/21 07:46:39;;;;;;;4.30;3.37;;;;;;;;;;5071412;28;20672;-43
2022/10/21 07:49:05;;;;;;;3.60;3.10;;;;;;;;;;5071834;28;20799;-43
2022/10/21 07:51:31;;;;;;;4.77;3.80;;;;;;;;;;5072023;28;20396;-44
2022/10/21 07:53:58;;;;;;;6.90;3.27;;;;;;;;;;5071625;28;20408;-43
2022/10/21 07:56:26;;;;;;;5.37;3.77;;;;;;;;;;5071031;28;20415;-43
2022/10/21 07:58:52;;;;;;;6.13;3.70;;;;;;;;;;5071663;28;20423;-43
2022/10/21 08:01:19;;;;;;;11.30;3.30;;;;;;;;;;5049811;28;20417;-43
2022/10/21 08:03:45;;;;;;;3.93;3.20;;;;;;;;;;5034771;28;20478;-43
2022/10/21 08:06:12;;;;;;;4.53;2.90;;;;;;;;;;5045344;28;20417;-43
2022/10/21 08:08:38;;;;;;;5.23;2.83;;;;;;;;;;5051614;28;20392;-44
2022/10/21 08:11:04;;;;;;;5.57;3.90;;;;;;;;;;5051713;28;20419;-44
2022/10/21 08:13:30;;;;;;;3.80;3.50;;;;;;;;;;5051240;28;20391;-44
2022/10/21 08:15:56;;;;;;;4.30;2.90;;;;;;;;;;5062506;28;20376;-43
2022/10/21 08:18:23;;;;;;;4.70;3.63;;;;;;;;;;5071524;28;20376;-43
2022/10/21 08:20:49;;;;;;;3.80;3.43;;;;;;;;;;5071395;28;20402;-44
2022/10/21 08:23:16;;;;;;;4.50;3.40;;;;;;;;;;5072999;28;20891;-44
2022/10/21 08:25:49;;;;;;;3.30;3.00;;;;;;;;;;5074679;28;20619;-43
2022/10/21 08:28:16;;;;;;;4.33;3.30;;;;;;;;;;5074481;28;20471;-44
2022/10/21 08:30:42;;;;;;;6.33;3.67;;;;;;;;;;5073329;28;20393;-44
2022/10/21 08:33:08;;;;;;;4.33;3.27;;;;;;;;;;5075158;28;20396;-44
2022/10/21 08:35:34;;;;;;;9.03;3.50;;;;;;;;;;5073783;28;20408;-43
2022/10/21 08:38:00;;;;;;;4.07;3.60;;;;;;;;;;5074448;28;20408;-44
2022/10/21 08:40:29;;;;;;;6.67;3.60;;;;;;;;;;5060834;28;20503;-43
2022/10/21 08:42:54;;;;;;;9.40;3.87;;;;;;;;;;5054876;28;20416;-44
2022/10/21 08:45:41;;;;;;;5.73;3.70;;;;;;;;;;5059145;28;20425;-44
2022/10/21 08:48:12;;;;;;;3.60;3.30;;;;;;;;;;5074764;28;20423;-44
2022/10/21 08:50:39;;;;;;;5.23;3.13;;;;;;;;;;5068054;28;20458;-43
2022/10/21 08:53:09;;;;;;;4.40;3.87;;;;;;;;;;5054546;28;20920;-44
2022/10/21 08:55:39;;;;;;;6.40;3.70;;;;;;;;;;5060650;28;20417;-43
2022/10/21 08:58:06;;;;;;;8.13;4.60;;;;;;;;;;5075021;28;20407;-43
2022/10/21 09:00:37;;;;;;;3.67;3.37;;;;;;;;;;5074572;28;20379;-43
2022/10/21 09:03:21;;;;;;;5.80;3.97;;;;;;;;;;5074763;28;20488;-43
2022/10/21 09:05:53;;;;;;;5.40;4.33;;;;;;;;;;5073848;28;20527;-43
2022/10/21 09:08:24;;;;;;;7.13;4.40;;;;;;;;;;5074667;28;20814;-43
2022/10/21 09:10:55;;;;;;;7.40;4.50;;;;;;;;;;5074582;28;20392;-43
2022/10/21 09:13:40;;;;;;;5.17;4.23;;;;;;;;;;5074763;28;20806;-44
2022/10/21 09:16:18;;;;;;;9.03;4.37;;;;;;;;;;5073908;28;20464;-44
2022/10/21 09:18:59;;;;;;;4.47;4.10;;;;;;;;;;5074493;28;20434;-43
2022/10/21 09:21:43;;;;;;;4.50;3.97;;;;;;;;;;5074165;28;20401;-43
2022/10/21 09:24:17;;;;;;;10.20;4.00;;;;;;;;;;5074218;28;20453;-43
2022/10/21 09:26:45;;;;;;;7.33;4.67;;;;;;;;;;5073727;28;20376;-43
2022/10/21 09:29:25;;;;;;;5.00;4.47;;;;;;;;;;5074385;28;20425;-43
2022/10/21 09:31:51;;;;;;;12.60;4.33;;;;;;;;;;5073825;28;20409;-43
2022/10/21 09:34:40;;;;;;;7.23;4.80;;;;;;;;;;5073346;28;20430;-43
2022/10/21 09:37:07;;;;;;;7.23;4.53;;;;;;;;;;5073740;28;20453;-44
2022/10/21 09:39:37;;;;;;;7.47;5.03;;;;;;;;;;5074146;28;20481;-43
2022/10/21 09:42:03;;;;;;;10.00;4.90;;;;;;;;;;5073750;28;20423;-43
2022/10/21 09:44:29;;;;;;;6.53;5.30;;;;;;;;;;5074044;28;20438;-43
2022/10/21 09:46:55;;;;;;;9.17;5.63;;;;;;;;;;5073784;28;20376;-43
2022/10/21 09:49:25;;;;;;;7.77;4.43;;;;;;;;;;5073892;28;20425;-43
2022/10/21 09:51:52;;;;;;;4.87;4.47;;;;;;;;;;5073904;28;20858;-43
2022/10/21 09:54:23;;;;;;;8.03;5.17;;;;;;;;;;5073875;28;20921;-43
2022/10/21 09:56:55;;;;;;;6.33;4.40;;;;;;;;;;5073077;28;20900;-44
2022/10/21 09:59:24;;;;;;;6.73;4.40;;;;;;;;;;5073748;28;20424;-43
2022/10/21 10:01:50;;;;;;;5.50;4.93;;;;;;;;;;5073410;28;20415;-43
2022/10/21 10:04:21;;;;;;;9.00;5.03;;;;;;;;;;5073598;28;20992;-44
2022/10/21 10:06:47;;;;;;;8.10;5.33;;;;;;;;;;5072676;28;20384;-43
2022/10/21 10:09:33;;;;;;;5.23;4.57;;;;;;;;;;5073518;28;20473;-43
2022/10/21 10:12:11;;;;;;;8.67;4.70;;;;;;;;;;5073242;28;20399;-44
2022/10/21 10:14:41;;;;;;;6.13;4.17;;;;;;;;;;5073361;28;20383;-43
2022/10/21 10:17:30;;;;;;;5.10;4.20;;;;;;;;;;5072919;28;20383;-43
2022/10/21 10:20:07;;;;;;;7.70;5.40;;;;;;;;;;5070271;28;20415;-43
2022/10/21 10:22:34;;;;;;;12.17;6.00;;;;;;;;;;5072906;28;20380;-43
2022/10/21 10:25:07;;;;;;;4.93;4.43;;;;;;;;;;5072518;28;20434;-43
2022/10/21 10:27:33;;;;;;;6.70;4.23;;;;;;;;;;5055612;28;20428;-43
2022/10/21 10:30:00;;;;;;;6.13;4.37;;;;;;;;;;5053181;28;20914;-43
2022/10/21 10:32:30;;;;;;;4.70;3.70;;;;;;;;;;5052983;28;20384;-43
2022/10/21 10:34:57;;;;;;;7.40;3.90;;;;;;;;;;5053082;28;20380;-43
2022/10/21 10:37:25;;;;;;;5.57;5.07;;;;;;;;;;5053024;28;20415;-44
2022/10/21 10:39:53;;;;;;;6.90;4.53;;;;;;;;;;5052884;28;20442;-43
2022/10/21 10:42:20;;;;;;;5.27;4.77;;;;;;;;;;5052916;28;21076;-43
2022/10/21 10:44:47;;;;;;;8.37;4.90;;;;;;;;;;5052567;28;20800;-43
2022/10/21 10:47:18;;;;;;;7.43;4.70;;;;;;;;;;5051538;28;20465;-43
2022/10/21 10:49:44;;;;;;;7.73;4.70;;;;;;;;;;5052871;28;20398;-44
2022/10/21 10:52:10;;;;;;;6.73;5.10;;;;;;;;;;5052692;28;20536;-43
2022/10/21 10:54:37;;;;;;;5.60;4.60;;;;;;;;;;5052568;28;20505;-43
2022/10/21 10:57:09;;;;;;;6.73;4.50;;;;;;;;;;5052257;28;20427;-43
2022/10/21 10:59:44;;;;;;;8.83;5.50;;;;;;;;;;5052519;28;21247;-44
2022/10/21 11:02:11;;;;;;;9.77;5.27;;;;;;;;;;5052571;28;20535;-43
2022/10/21 11:04:39;;;;;;;10.57;4.97;;;;;;;;;;5052156;28;20469;-43
2022/10/21 11:07:25;;;;;;;7.00;5.00;;;;;;;;;;5052054;28;20810;-42
2022/10/21 11:09:53;;;;;;;13.70;4.93;;;;;;;;;;5052830;28;20432;-42
2022/10/21 11:12:22;;;;;;;9.33;4.83;;;;;;;;;;5052363;28;20384;-42
2022/10/21 11:14:51;;;;;;;4.13;3.77;;;;;;;;;;5052156;28;20420;-42
2022/10/21 11:17:19;;;;;;;5.67;3.60;;;;;;;;;;5051864;28;20420;-43
2022/10/21 11:19:45;;;;;;;4.03;2.80;;;;;;;;;;5052173;28;20407;-44
2022/10/21 11:22:12;;;;;;;5.00;3.17;;;;;;;;;;5052116;28;20896;-42
2022/10/21 11:24:53;;;;;;;5.47;3.60;;;;;;;;;;5051864;28;21082;-42
2022/10/21 11:27:25;;;;;;;3.60;3.03;;;;;;;;;;5051724;28;20430;-42
2022/10/21 11:29:57;;;;;;;3.20;2.90;;;;;;;;;;5052168;28;20456;-42
2022/10/21 11:32:34;;;;;;;4.50;3.13;;;;;;;;;;5052038;28;20388;-42
2022/10/21 11:35:00;;;;;;;4.90;3.23;;;;;;;;;;5044542;28;20409;-44
2022/10/21 11:37:35;;;;;;;2.60;2.43;;;;;;;;;;5051823;28;20402;-45
2022/10/21 11:40:07;;;;;;;4.47;2.07;;;;;;;;;;5051903;28;20521;-42
2022/10/21 11:42:39;;;;;;;2.53;2.30;;;;;;;;;;5051742;28;20391;-44
2022/10/21 11:45:05;;;;;;;3.00;2.70;;;;;;;;;;5050988;28;20526;-44
2022/10/21 11:47:39;;;;;;;6.60;2.47;;;;;;;;;;5051279;28;20395;-43
2022/10/21 11:50:31;;;;;;;4.60;2.77;;;;;;;;;;5051438;28;20428;-43
2022/10/21 11:52:57;;;;;;;2.90;2.70;;;;;;;;;;5051815;28;20404;-42
2022/10/21 11:55:37;;;;;;;2.60;2.40;;;;;;;;;;5050968;28;20960;-43
2022/10/21 11:58:24;;;;;;;2.90;2.37;;;;;;;;;;5050684;28;20391;-42
2022/10/21 12:00:50;;;;;;;2.80;2.30;;;;;;;;;;5051482;28;20403;-43
2022/10/21 12:03:15;;;;;;;3.17;2.93;;;;;;;;;;5051097;28;20412;-43
2022/10/21 12:05:54;;;;;;;3.03;2.83;;;;;;;;;;5050634;28;20428;-43
2022/10/21 12:08:26;;;;;;;4.27;2.50;;;;;;;;;;5051048;28;20405;-43
2022/10/21 12:11:00;;;;;;;2.40;2.20;;;;;;;;;;5051965;28;20409;-43
2022/10/21 12:13:29;;;;;;;3.53;2.70;;;;;;;;;;5049870;28;20413;-43
2022/10/21 12:15:57;;;;;;;2.37;2.17;;;;;;;;;;5050752;28;20387;-43
2022/10/21 12:18:25;;;;;;;4.13;2.90;;;;;;;;;;5050947;28;20829;-43
2022/10/21 12:20:53;;;;;;;5.67;2.93;;;;;;;;;;5051251;28;20389;-43
2022/10/21 12:23:21;;;;;;;2.63;2.43;;;;;;;;;;5051210;28;20448;-43
2022/10/21 12:26:05;;;;;;;2.73;2.30;;;;;;;;;;5050683;28;20431;-43
2022/10/21 12:28:50;;;;;;;3.50;2.80;;;;;;;;;;5049098;28;20407;-42
2022/10/21 12:31:26;;;;;;;2.77;2.60;;;;;;;;;;5055670;28;20382;-44
2022/10/21 12:33:52;;;;;;;3.03;2.53;;;;;;;;;;5032356;28;20840;-43
2022/10/21 12:36:28;;;;;;;5.13;2.70;;;;;;;;;;5033560;28;20391;-44
2022/10/21 12:38:55;;;;;;;2.70;2.40;;;;;;;;;;5033396;28;20443;-44
2022/10/21 12:41:35;;;;;;;4.00;2.90;;;;;;;;;;5034865;28;20936;-44
2022/10/21 12:44:30;;;;;;;4.60;2.83;;;;;;;;;;5055507;28;20467;-44
2022/10/21 12:47:00;;;;;;;19.37;3.23;;;;;;;;;;5049930;28;20407;-44
2022/10/21 12:49:37;;;;;;;2.50;2.30;;;;;;;;;;5054147;28;20430;-44
2022/10/21 12:52:23;;;;;;;4.90;2.30;;;;;;;;;;5056708;28;20407;-44
2022/10/21 12:54:55;;;;;;;2.53;2.20;;;;;;;;;;5058007;28;20414;-44
2022/10/21 12:57:33;;;;;;;3.30;1.90;;;;;;;;;;5055502;28;20409;-45
2022/10/21 13:00:18;;;;;;;4.30;2.10;;;;;;;;;;5052156;28;20851;-45
2022/10/21 13:02:58;;;;;;;4.90;2.10;;;;;;;;;;5049515;28;20424;-44
2022/10/21 13:05:36;;;;;;;2.87;1.93;;;;;;;;;;5050288;28;20461;-44
2022/10/21 13:08:26;;;;;;;2.30;2.10;;;;;;;;;;5050729;28;20451;-44
2022/10/21 13:11:04;;;;;;;2.83;2.03;;;;;;;;;;5053473;28;20401;-44
2022/10/21 13:13:32;;;;;;;4.43;1.80;;;;;;;;;;5054483;28;20479;-44
2022/10/21 13:15:58;;;;;;;4.10;1.90;;;;;;;;;;5054053;28;20436;-44
2022/10/21 13:18:43;;;;;;;3.80;3.07;;;;;;;;;;5054070;28;20757;-44
2022/10/21 13:21:22;;;;;;;2.60;2.40;;;;;;;;;;5054287;28;20407;-44
2022/10/21 13:23:50;;;;;;;2.03;1.93;;;;;;;;;;5050693;28;20500;-44
2022/10/21 13:26:18;;;;;;;2.63;1.83;;;;;;;;;;5053327;28;20408;-44
2022/10/21 13:29:07;;;;;;;2.80;1.80;;;;;;;;;;5054284;28;20511;-44
2022/10/21 13:31:33;;;;;;;1.83;1.63;;;;;;;;;;5051413;28;20424;-44
2022/10/21 13:33:59;;;;;;;5.10;2.20;;;;;;;;;;5053883;28;20540;-44
2022/10/21 13:36:33;;;;;;;3.43;2.20;;;;;;;;;;5053537;28;20436;-43
2022/10/21 13:39:00;;;;;;;2.00;1.90;;;;;;;;;;5049091;28;20476;-43
2022/10/21 13:41:27;;;;;;;5.77;2.13;;;;;;;;;;5033577;28;20499;-43
2022/10/21 13:44:05;;;;;;;2.90;2.17;;;;;;;;;;5048983;28;20412;-43
2022/10/21 13:46:34;;;;;;;4.77;1.90;;;;;;;;;;5051541;28;20805;-43
2022/10/21 13:49:00;;;;;;;3.40;2.50;;;;;;;;;;5052146;28;20837;-42
2022/10/21 13:51:28;;;;;;;13.33;3.50;;;;;;;;;;5051960;28;20453;-44
2022/10/21 13:53:58;;;;;;;8.03;2.83;;;;;;;;;;5051848;28;20456;-43
2022/10/21 13:56:32;;;;;;;2.30;2.10;;;;;;;;;;5051689;28;20397;-43
2022/10/21 13:58:58;;;;;;;6.37;2.10;;;;;;;;;;5053859;28;20427;-43
2022/10/21 14:01:25;;;;;;;2.30;2.00;;;;;;;;;;5053726;28;20800;-43
2022/10/21 14:03:53;;;;;;;2.30;2.20;;;;;;;;;;5053000;28;20488;-43
2022/10/21 14:06:29;;;;;;;5.60;2.27;;;;;;;;;;5053010;28;20495;-43
2022/10/21 14:08:55;;;;;;;10.40;2.67;;;;;;;;;;5053465;28;20427;-43
2022/10/21 14:11:26;;;;;;;2.57;2.37;;;;;;;;;;5053958;28;20734;-42
2022/10/21 14:13:53;;;;;;;2.40;2.20;;;;;;;;;;5053374;28;20430;-43
2022/10/21 14:16:39;;;;;;;5.90;2.40;;;;;;;;;;5052709;28;21052;-43
2022/10/21 14:19:07;;;;;;;4.10;2.87;;;;;;;;;;5053260;28;20953;-43
2022/10/21 14:21:36;;;;;;;6.23;2.40;;;;;;;;;;5053091;28;20399;-43
2022/10/21 14:24:02;;;;;;;3.70;1.73;;;;;;;;;;5052941;28;20482;-42
2022/10/21 14:26:32;;;;;;;2.20;2.07;;;;;;;;;;5052645;28;20490;-43
2022/10/21 14:29:02;;;;;;;7.03;2.10;;;;;;;;;;5053186;28;20430;-43
2022/10/21 14:31:29;;;;;;;3.00;2.17;;;;;;;;;;5053138;28;20406;-43
2022/10/21 14:33:55;;;;;;;2.33;2.23;;;;;;;;;;5052559;28;20493;-43
2022/10/21 14:36:23;;;;;;;2.90;2.30;;;;;;;;;;5052352;28;20410;-43
2022/10/21 14:38:50;;;;;;;2.00;1.90;;;;;;;;;;5053127;28;20942;-43
2022/10/21 14:41:19;;;;;;;1.73;1.63;;;;;;;;;;5053209;28;20403;-43
2022/10/21 14:43:46;;;;;;;2.33;1.87;;;;;;;;;;5052358;28;20415;-44
2022/10/21 14:46:12;;;;;;;3.50;1.80;;;;;;;;;;5052233;28;20904;-44
2022/10/21 14:48:49;;;;;;;2.80;2.10;;;;;;;;;;5049449;28;20939;-44